sensor_id;sensor_type;location;lat;lon;timestamp;P1;durP1;ratioP1;P2;durP2;ratioP2
79480;SDS011;68944;48.262;14.208;2024-03-23T00:53:58;18.55;;;6.95;;
79480;SDS011;68944;48.262;14.208;2024-03-23T00:56:23;12.80;;;7.00;;
79480;SDS011;68944;48.262;14.208;2024-03-23T00:58:49;15.27;;;7.55;;
79480;SDS011;68944;48.262;14.208;2024-03-23T01:01:15;13.88;;;7.60;;
79480;SDS011;68944;48.262;14.208;2024-03-23T01:03:41;14.88;;;7.35;;
79480;SDS011;68944;48.262;14.208;2024-03-23T01:06:06;12.98;;;7.13;;
79480;SDS011;68944;48.262;14.208;2024-03-23T01:08:32;12.77;;;7.03;;
79480;SDS011;68944;48.262;14.208;2024-03-23T01:10:58;12.73;;;7.18;;
79480;SDS011;68944;48.262;14.208;2024-03-23T01:13:26;14.65;;;7.50;;
79480;SDS011;68944;48.262;14.208;2024-03-23T01:15:52;14.98;;;7.55;;
79480;SDS011;68944;48.262;14.208;2024-03-23T01:18:19;21.23;;;11.68;;
79480;SDS011;68944;48.262;14.208;2024-03-23T01:20:45;16.05;;;7.60;;
79480;SDS011;68944;48.262;14.208;2024-03-23T01:23:11;13.32;;;6.93;;
79480;SDS011;68944;48.262;14.208;2024-03-23T01:25:37;20.42;;;7.57;;
79480;SDS011;68944;48.262;14.208;2024-03-23T01:28:02;17.42;;;8.57;;
79480;SDS011;68944;48.262;14.208;2024-03-23T01:30:28;17.20;;;7.85;;
79480;SDS011;68944;48.262;14.208;2024-03-23T01:32:54;14.77;;;8.00;;
79480;SDS011;68944;48.262;14.208;2024-03-23T01:35:22;12.63;;;7.70;;
79480;SDS011;68944;48.262;14.208;2024-03-23T01:40:13;14.82;;;7.70;;
79480;SDS011;68944;48.262;14.208;2024-03-23T01:42:42;15.13;;;7.85;;
79480;SDS011;68944;48.262;14.208;2024-03-23T01:45:19;14.13;;;7.18;;
79480;SDS011;68944;48.262;14.208;2024-03-23T01:47:45;14.07;;;7.70;;
79480;SDS011;68944;48.262;14.208;2024-03-23T01:50:11;14.15;;;7.47;;
79480;SDS011;68944;48.262;14.208;2024-03-23T01:52:37;17.08;;;8.82;;
79480;SDS011;68944;48.262;14.208;2024-03-23T01:55:02;14.90;;;7.80;;
79480;SDS011;68944;48.262;14.208;2024-03-23T01:57:28;17.30;;;9.02;;
79480;SDS011;68944;48.262;14.208;2024-03-23T01:59:53;15.50;;;8.60;;
79480;SDS011;68944;48.262;14.208;2024-03-23T02:02:25;21.73;;;11.48;;
79480;SDS011;68944;48.262;14.208;2024-03-23T02:04:51;17.20;;;9.10;;
79480;SDS011;68944;48.262;14.208;2024-03-23T02:07:16;19.00;;;8.85;;
79480;SDS011;68944;48.262;14.208;2024-03-23T02:09:42;16.85;;;8.82;;
79480;SDS011;68944;48.262;14.208;2024-03-23T02:12:09;18.92;;;9.27;;
79480;SDS011;68944;48.262;14.208;2024-03-23T02:14:35;15.50;;;8.40;;
79480;SDS011;68944;48.262;14.208;2024-03-23T02:17:01;16.40;;;7.93;;
79480;SDS011;68944;48.262;14.208;2024-03-23T02:19:26;15.88;;;7.70;;
79480;SDS011;68944;48.262;14.208;2024-03-23T02:21:52;15.15;;;8.02;;
79480;SDS011;68944;48.262;14.208;2024-03-23T02:24:18;24.10;;;8.77;;
79480;SDS011;68944;48.262;14.208;2024-03-23T02:26:43;17.38;;;8.60;;
79480;SDS011;68944;48.262;14.208;2024-03-23T02:29:09;15.75;;;8.32;;
79480;SDS011;68944;48.262;14.208;2024-03-23T02:31:35;13.43;;;7.78;;
79480;SDS011;68944;48.262;14.208;2024-03-23T02:34:01;14.05;;;7.60;;
79480;SDS011;68944;48.262;14.208;2024-03-23T02:36:26;12.52;;;7.28;;
79480;SDS011;68944;48.262;14.208;2024-03-23T02:38:52;14.95;;;8.23;;
79480;SDS011;68944;48.262;14.208;2024-03-23T02:41:17;13.63;;;7.35;;
79480;SDS011;68944;48.262;14.208;2024-03-23T02:43:51;16.10;;;7.85;;
79480;SDS011;68944;48.262;14.208;2024-03-23T02:46:16;18.02;;;9.27;;
79480;SDS011;68944;48.262;14.208;2024-03-23T02:48:42;18.77;;;9.52;;
79480;SDS011;68944;48.262;14.208;2024-03-23T02:51:08;17.00;;;9.90;;
79480;SDS011;68944;48.262;14.208;2024-03-23T02:53:35;17.90;;;7.93;;
79480;SDS011;68944;48.262;14.208;2024-03-23T02:56:00;16.65;;;8.05;;
79480;SDS011;68944;48.262;14.208;2024-03-23T02:58:26;15.82;;;8.40;;
79480;SDS011;68944;48.262;14.208;2024-03-23T03:00:51;15.82;;;8.13;;
79480;SDS011;68944;48.262;14.208;2024-03-23T03:03:17;17.17;;;8.52;;
79480;SDS011;68944;48.262;14.208;2024-03-23T03:05:43;14.82;;;7.40;;
79480;SDS011;68944;48.262;14.208;2024-03-23T03:08:08;15.25;;;7.97;;
79480;SDS011;68944;48.262;14.208;2024-03-23T03:10:34;16.65;;;8.50;;
79480;SDS011;68944;48.262;14.208;2024-03-23T03:13:01;19.90;;;8.52;;
79480;SDS011;68944;48.262;14.208;2024-03-23T03:15:27;14.27;;;7.70;;
79480;SDS011;68944;48.262;14.208;2024-03-23T03:17:53;14.48;;;7.65;;
79480;SDS011;68944;48.262;14.208;2024-03-23T03:20:19;13.82;;;7.47;;
79480;SDS011;68944;48.262;14.208;2024-03-23T03:22:44;15.30;;;8.52;;
79480;SDS011;68944;48.262;14.208;2024-03-23T03:25:10;14.35;;;7.25;;
79480;SDS011;68944;48.262;14.208;2024-03-23T03:27:35;16.05;;;7.97;;
79480;SDS011;68944;48.262;14.208;2024-03-23T03:30:01;15.77;;;9.30;;
79480;SDS011;68944;48.262;14.208;2024-03-23T03:32:31;14.38;;;8.35;;
79480;SDS011;68944;48.262;14.208;2024-03-23T03:34:57;13.80;;;8.50;;
79480;SDS011;68944;48.262;14.208;2024-03-23T03:37:23;15.70;;;9.02;;
79480;SDS011;68944;48.262;14.208;2024-03-23T03:39:48;15.55;;;8.57;;
79480;SDS011;68944;48.262;14.208;2024-03-23T03:42:14;14.88;;;8.70;;
79480;SDS011;68944;48.262;14.208;2024-03-23T03:44:40;17.73;;;8.60;;
79480;SDS011;68944;48.262;14.208;2024-03-23T03:47:06;16.80;;;9.00;;
79480;SDS011;68944;48.262;14.208;2024-03-23T03:49:31;16.50;;;8.82;;
79480;SDS011;68944;48.262;14.208;2024-03-23T03:51:57;17.13;;;8.88;;
79480;SDS011;68944;48.262;14.208;2024-03-23T03:54:22;15.80;;;8.15;;
79480;SDS011;68944;48.262;14.208;2024-03-23T03:56:48;18.10;;;8.82;;
79480;SDS011;68944;48.262;14.208;2024-03-23T03:59:14;13.85;;;8.50;;
79480;SDS011;68944;48.262;14.208;2024-03-23T04:01:40;16.48;;;8.43;;
79480;SDS011;68944;48.262;14.208;2024-03-23T04:04:06;16.23;;;7.93;;
79480;SDS011;68944;48.262;14.208;2024-03-23T04:06:32;16.38;;;8.65;;
79480;SDS011;68944;48.262;14.208;2024-03-23T04:08:58;14.95;;;8.00;;
79480;SDS011;68944;48.262;14.208;2024-03-23T04:11:24;19.98;;;8.82;;
79480;SDS011;68944;48.262;14.208;2024-03-23T04:13:49;15.00;;;7.85;;
79480;SDS011;68944;48.262;14.208;2024-03-23T04:16:26;27.42;;;13.35;;
79480;SDS011;68944;48.262;14.208;2024-03-23T04:18:56;17.05;;;9.00;;
79480;SDS011;68944;48.262;14.208;2024-03-23T04:21:21;15.63;;;8.50;;
79480;SDS011;68944;48.262;14.208;2024-03-23T04:23:47;16.17;;;8.90;;
79480;SDS011;68944;48.262;14.208;2024-03-23T04:26:13;13.13;;;7.53;;
79480;SDS011;68944;48.262;14.208;2024-03-23T04:28:39;15.00;;;7.90;;
79480;SDS011;68944;48.262;14.208;2024-03-23T04:31:04;14.00;;;7.60;;
79480;SDS011;68944;48.262;14.208;2024-03-23T04:33:30;16.48;;;8.80;;
79480;SDS011;68944;48.262;14.208;2024-03-23T04:35:56;16.40;;;8.45;;
79480;SDS011;68944;48.262;14.208;2024-03-23T04:38:22;14.85;;;8.35;;
79480;SDS011;68944;48.262;14.208;2024-03-23T04:40:57;14.55;;;8.48;;
79480;SDS011;68944;48.262;14.208;2024-03-23T04:43:23;27.88;;;12.95;;
79480;SDS011;68944;48.262;14.208;2024-03-23T04:45:49;29.20;;;14.77;;
79480;SDS011;68944;48.262;14.208;2024-03-23T04:48:15;19.15;;;9.77;;
79480;SDS011;68944;48.262;14.208;2024-03-23T04:50:40;15.15;;;8.85;;
79480;SDS011;68944;48.262;14.208;2024-03-23T04:53:06;15.90;;;8.68;;
79480;SDS011;68944;48.262;14.208;2024-03-23T04:55:32;16.20;;;8.70;;
79480;SDS011;68944;48.262;14.208;2024-03-23T04:57:58;14.68;;;8.15;;
79480;SDS011;68944;48.262;14.208;2024-03-23T05:00:23;15.98;;;9.18;;
79480;SDS011;68944;48.262;14.208;2024-03-23T05:02:50;16.52;;;9.02;;
79480;SDS011;68944;48.262;14.208;2024-03-23T05:05:16;16.30;;;8.70;;
79480;SDS011;68944;48.262;14.208;2024-03-23T05:07:41;17.00;;;8.45;;
79480;SDS011;68944;48.262;14.208;2024-03-23T05:10:08;14.10;;;7.72;;
79480;SDS011;68944;48.262;14.208;2024-03-23T05:12:36;14.52;;;7.65;;
79480;SDS011;68944;48.262;14.208;2024-03-23T05:15:03;14.65;;;8.38;;
79480;SDS011;68944;48.262;14.208;2024-03-23T05:17:35;15.15;;;7.88;;
79480;SDS011;68944;48.262;14.208;2024-03-23T05:20:01;23.05;;;9.32;;
79480;SDS011;68944;48.262;14.208;2024-03-23T05:22:29;17.30;;;8.88;;
79480;SDS011;68944;48.262;14.208;2024-03-23T05:24:54;15.82;;;8.00;;
79480;SDS011;68944;48.262;14.208;2024-03-23T05:27:20;19.02;;;8.88;;
79480;SDS011;68944;48.262;14.208;2024-03-23T05:29:45;15.07;;;8.70;;
79480;SDS011;68944;48.262;14.208;2024-03-23T05:32:12;16.73;;;8.88;;
79480;SDS011;68944;48.262;14.208;2024-03-23T05:34:38;14.52;;;8.50;;
79480;SDS011;68944;48.262;14.208;2024-03-23T05:37:03;16.60;;;8.25;;
79480;SDS011;68944;48.262;14.208;2024-03-23T05:39:29;16.92;;;9.48;;
79480;SDS011;68944;48.262;14.208;2024-03-23T05:41:55;18.33;;;10.38;;
79480;SDS011;68944;48.262;14.208;2024-03-23T05:44:20;17.90;;;8.95;;
79480;SDS011;68944;48.262;14.208;2024-03-23T05:46:46;16.67;;;9.30;;
79480;SDS011;68944;48.262;14.208;2024-03-23T05:49:13;18.13;;;9.05;;
79480;SDS011;68944;48.262;14.208;2024-03-23T05:51:41;20.85;;;10.05;;
79480;SDS011;68944;48.262;14.208;2024-03-23T05:54:07;16.83;;;9.02;;
79480;SDS011;68944;48.262;14.208;2024-03-23T05:56:32;16.20;;;9.23;;
79480;SDS011;68944;48.262;14.208;2024-03-23T05:58:58;16.00;;;9.38;;
79480;SDS011;68944;48.262;14.208;2024-03-23T06:01:23;15.55;;;8.73;;
79480;SDS011;68944;48.262;14.208;2024-03-23T06:03:49;16.08;;;9.25;;
79480;SDS011;68944;48.262;14.208;2024-03-23T06:06:14;16.02;;;9.23;;
79480;SDS011;68944;48.262;14.208;2024-03-23T06:08:40;15.27;;;8.70;;
79480;SDS011;68944;48.262;14.208;2024-03-23T06:11:05;14.95;;;8.90;;
79480;SDS011;68944;48.262;14.208;2024-03-23T06:13:32;17.65;;;8.63;;
79480;SDS011;68944;48.262;14.208;2024-03-23T06:15:59;15.52;;;9.13;;
79480;SDS011;68944;48.262;14.208;2024-03-23T06:18:28;14.18;;;8.68;;
79480;SDS011;68944;48.262;14.208;2024-03-23T06:20:53;16.90;;;8.90;;
79480;SDS011;68944;48.262;14.208;2024-03-23T06:23:19;16.98;;;8.85;;
79480;SDS011;68944;48.262;14.208;2024-03-23T06:25:45;16.98;;;8.80;;
79480;SDS011;68944;48.262;14.208;2024-03-23T06:28:13;27.17;;;13.60;;
79480;SDS011;68944;48.262;14.208;2024-03-23T06:30:39;37.53;;;16.48;;
79480;SDS011;68944;48.262;14.208;2024-03-23T06:33:04;20.63;;;11.43;;
79480;SDS011;68944;48.262;14.208;2024-03-23T06:35:33;18.55;;;10.05;;
79480;SDS011;68944;48.262;14.208;2024-03-23T06:37:58;14.43;;;8.65;;
79480;SDS011;68944;48.262;14.208;2024-03-23T06:40:24;16.08;;;8.57;;
79480;SDS011;68944;48.262;14.208;2024-03-23T06:42:50;14.65;;;8.35;;
79480;SDS011;68944;48.262;14.208;2024-03-23T06:45:16;14.43;;;8.48;;
79480;SDS011;68944;48.262;14.208;2024-03-23T06:47:42;16.00;;;8.85;;
79480;SDS011;68944;48.262;14.208;2024-03-23T06:50:07;16.75;;;8.50;;
79480;SDS011;68944;48.262;14.208;2024-03-23T06:52:35;18.73;;;8.38;;
79480;SDS011;68944;48.262;14.208;2024-03-23T06:55:01;14.80;;;7.75;;
79480;SDS011;68944;48.262;14.208;2024-03-23T06:57:27;13.85;;;7.68;;
79480;SDS011;68944;48.262;14.208;2024-03-23T06:59:52;12.57;;;7.55;;
79480;SDS011;68944;48.262;14.208;2024-03-23T07:02:18;13.27;;;7.97;;
79480;SDS011;68944;48.262;14.208;2024-03-23T07:04:43;16.20;;;8.10;;
79480;SDS011;68944;48.262;14.208;2024-03-23T07:07:09;14.52;;;8.15;;
79480;SDS011;68944;48.262;14.208;2024-03-23T07:09:35;12.90;;;7.28;;
79480;SDS011;68944;48.262;14.208;2024-03-23T07:12:00;15.10;;;8.18;;
79480;SDS011;68944;48.262;14.208;2024-03-23T07:14:26;13.57;;;7.78;;
79480;SDS011;68944;48.262;14.208;2024-03-23T07:16:51;14.40;;;7.40;;
79480;SDS011;68944;48.262;14.208;2024-03-23T07:19:17;13.98;;;7.60;;
79480;SDS011;68944;48.262;14.208;2024-03-23T07:21:43;14.45;;;7.30;;
79480;SDS011;68944;48.262;14.208;2024-03-23T07:24:09;14.05;;;7.72;;
79480;SDS011;68944;48.262;14.208;2024-03-23T07:26:35;13.95;;;7.13;;
79480;SDS011;68944;48.262;14.208;2024-03-23T07:29:01;12.60;;;7.28;;
79480;SDS011;68944;48.262;14.208;2024-03-23T07:31:27;11.73;;;6.68;;
79480;SDS011;68944;48.262;14.208;2024-03-23T07:33:52;12.77;;;7.22;;
79480;SDS011;68944;48.262;14.208;2024-03-23T07:36:18;14.32;;;7.43;;
79480;SDS011;68944;48.262;14.208;2024-03-23T07:38:43;13.82;;;7.07;;
79480;SDS011;68944;48.262;14.208;2024-03-23T07:41:14;12.27;;;7.25;;
79480;SDS011;68944;48.262;14.208;2024-03-23T07:43:44;16.77;;;7.65;;
79480;SDS011;68944;48.262;14.208;2024-03-23T07:46:10;14.35;;;8.07;;
79480;SDS011;68944;48.262;14.208;2024-03-23T07:48:37;14.27;;;7.13;;
79480;SDS011;68944;48.262;14.208;2024-03-23T07:51:05;17.42;;;7.00;;
79480;SDS011;68944;48.262;14.208;2024-03-23T07:53:36;14.48;;;6.97;;
79480;SDS011;68944;48.262;14.208;2024-03-23T07:56:06;12.18;;;6.50;;
79480;SDS011;68944;48.262;14.208;2024-03-23T07:58:33;13.00;;;6.30;;
79480;SDS011;68944;48.262;14.208;2024-03-23T08:01:03;13.38;;;6.95;;
79480;SDS011;68944;48.262;14.208;2024-03-23T08:03:30;13.13;;;7.38;;
79480;SDS011;68944;48.262;14.208;2024-03-23T08:05:56;16.75;;;7.07;;
79480;SDS011;68944;48.262;14.208;2024-03-23T08:08:21;17.65;;;8.50;;
79480;SDS011;68944;48.262;14.208;2024-03-23T08:10:50;18.45;;;7.65;;
79480;SDS011;68944;48.262;14.208;2024-03-23T08:13:17;12.30;;;6.35;;
79480;SDS011;68944;48.262;14.208;2024-03-23T08:15:43;9.60;;;5.18;;
79480;SDS011;68944;48.262;14.208;2024-03-23T08:18:10;10.80;;;5.32;;
79480;SDS011;68944;48.262;14.208;2024-03-23T08:20:37;11.40;;;4.90;;
79480;SDS011;68944;48.262;14.208;2024-03-23T08:23:03;14.38;;;4.82;;
79480;SDS011;68944;48.262;14.208;2024-03-23T08:25:31;10.80;;;5.05;;
79480;SDS011;68944;48.262;14.208;2024-03-23T08:27:57;12.63;;;4.68;;
79480;SDS011;68944;48.262;14.208;2024-03-23T08:30:23;9.07;;;4.55;;
79480;SDS011;68944;48.262;14.208;2024-03-23T08:32:48;9.95;;;3.97;;
79480;SDS011;68944;48.262;14.208;2024-03-23T08:35:14;9.45;;;4.10;;
79480;SDS011;68944;48.262;14.208;2024-03-23T08:37:39;12.30;;;4.63;;
79480;SDS011;68944;48.262;14.208;2024-03-23T08:40:05;9.85;;;4.60;;
79480;SDS011;68944;48.262;14.208;2024-03-23T08:42:31;12.07;;;4.80;;
79480;SDS011;68944;48.262;14.208;2024-03-23T08:44:57;13.80;;;5.90;;
79480;SDS011;68944;48.262;14.208;2024-03-23T08:47:22;10.27;;;5.20;;
79480;SDS011;68944;48.262;14.208;2024-03-23T08:49:48;10.85;;;4.63;;
79480;SDS011;68944;48.262;14.208;2024-03-23T08:52:15;10.10;;;4.80;;
79480;SDS011;68944;48.262;14.208;2024-03-23T08:54:41;8.75;;;4.00;;
79480;SDS011;68944;48.262;14.208;2024-03-23T08:57:06;9.65;;;4.03;;
79480;SDS011;68944;48.262;14.208;2024-03-23T08:59:32;8.60;;;4.05;;
79480;SDS011;68944;48.262;14.208;2024-03-23T09:01:58;10.70;;;4.38;;
79480;SDS011;68944;48.262;14.208;2024-03-23T09:04:23;10.15;;;4.13;;
79480;SDS011;68944;48.262;14.208;2024-03-23T09:06:49;8.05;;;3.85;;
79480;SDS011;68944;48.262;14.208;2024-03-23T09:09:15;10.15;;;4.05;;
79480;SDS011;68944;48.262;14.208;2024-03-23T09:11:40;9.45;;;4.30;;
79480;SDS011;68944;48.262;14.208;2024-03-23T09:14:06;9.25;;;4.30;;
79480;SDS011;68944;48.262;14.208;2024-03-23T09:16:31;9.55;;;3.97;;
79480;SDS011;68944;48.262;14.208;2024-03-23T09:18:57;8.30;;;4.00;;
79480;SDS011;68944;48.262;14.208;2024-03-23T09:21:22;10.15;;;3.53;;
79480;SDS011;68944;48.262;14.208;2024-03-23T09:23:48;10.43;;;3.83;;
79480;SDS011;68944;48.262;14.208;2024-03-23T09:26:14;7.47;;;3.30;;
79480;SDS011;68944;48.262;14.208;2024-03-23T09:28:40;11.02;;;4.10;;
79480;SDS011;68944;48.262;14.208;2024-03-23T09:31:06;8.05;;;3.70;;
79480;SDS011;68944;48.262;14.208;2024-03-23T09:33:33;8.40;;;3.83;;
79480;SDS011;68944;48.262;14.208;2024-03-23T09:36:03;7.53;;;3.45;;
79480;SDS011;68944;48.262;14.208;2024-03-23T09:38:29;8.15;;;3.38;;
79480;SDS011;68944;48.262;14.208;2024-03-23T09:40:56;8.02;;;3.65;;
79480;SDS011;68944;48.262;14.208;2024-03-23T09:43:22;7.40;;;3.22;;
79480;SDS011;68944;48.262;14.208;2024-03-23T09:45:47;9.73;;;3.75;;
79480;SDS011;68944;48.262;14.208;2024-03-23T09:48:14;7.40;;;3.10;;
79480;SDS011;68944;48.262;14.208;2024-03-23T09:50:41;9.75;;;3.20;;
79480;SDS011;68944;48.262;14.208;2024-03-23T09:53:07;6.97;;;2.95;;
79480;SDS011;68944;48.262;14.208;2024-03-23T09:55:34;7.45;;;2.78;;
79480;SDS011;68944;48.262;14.208;2024-03-23T09:58:03;7.22;;;2.80;;
79480;SDS011;68944;48.262;14.208;2024-03-23T10:00:30;7.53;;;2.90;;
79480;SDS011;68944;48.262;14.208;2024-03-23T10:02:57;8.07;;;3.08;;
79480;SDS011;68944;48.262;14.208;2024-03-23T10:05:27;6.68;;;2.55;;
79480;SDS011;68944;48.262;14.208;2024-03-23T10:07:53;5.85;;;2.50;;
79480;SDS011;68944;48.262;14.208;2024-03-23T10:10:19;7.75;;;2.35;;
79480;SDS011;68944;48.262;14.208;2024-03-23T10:12:49;9.50;;;1.63;;
79480;SDS011;68944;48.262;14.208;2024-03-23T10:17:50;7.03;;;1.17;;
79480;SDS011;68944;48.262;14.208;2024-03-23T10:20:20;5.93;;;1.42;;
79480;SDS011;68944;48.262;14.208;2024-03-23T10:22:50;5.38;;;1.42;;
79480;SDS011;68944;48.262;14.208;2024-03-23T10:25:22;5.70;;;1.23;;
79480;SDS011;68944;48.262;14.208;2024-03-23T10:27:58;4.53;;;1.52;;
79480;SDS011;68944;48.262;14.208;2024-03-23T10:30:25;6.55;;;1.40;;
79480;SDS011;68944;48.262;14.208;2024-03-23T10:33:13;3.25;;;1.05;;
79480;SDS011;68944;48.262;14.208;2024-03-23T10:35:39;5.72;;;1.35;;
79480;SDS011;68944;48.262;14.208;2024-03-23T10:38:05;1.60;;;0.77;;
79480;SDS011;68944;48.262;14.208;2024-03-23T10:40:35;1.90;;;0.80;;
79480;SDS011;68944;48.262;14.208;2024-03-23T10:43:02;3.00;;;1.10;;
79480;SDS011;68944;48.262;14.208;2024-03-23T10:45:29;3.38;;;1.00;;
79480;SDS011;68944;48.262;14.208;2024-03-23T10:47:55;3.05;;;1.02;;
79480;SDS011;68944;48.262;14.208;2024-03-23T10:50:21;2.92;;;0.90;;
79480;SDS011;68944;48.262;14.208;2024-03-23T10:52:48;3.33;;;1.08;;
79480;SDS011;68944;48.262;14.208;2024-03-23T10:55:14;2.72;;;0.90;;
79480;SDS011;68944;48.262;14.208;2024-03-23T10:57:48;2.42;;;0.88;;
79480;SDS011;68944;48.262;14.208;2024-03-23T11:00:16;1.90;;;0.70;;
79480;SDS011;68944;48.262;14.208;2024-03-23T11:02:42;3.53;;;1.00;;
79480;SDS011;68944;48.262;14.208;2024-03-23T11:07:53;1.83;;;0.80;;
79480;SDS011;68944;48.262;14.208;2024-03-23T11:10:25;3.60;;;1.00;;
79480;SDS011;68944;48.262;14.208;2024-03-23T11:12:52;2.38;;;0.88;;
79480;SDS011;68944;48.262;14.208;2024-03-23T11:15:19;7.18;;;0.90;;
79480;SDS011;68944;48.262;14.208;2024-03-23T11:18:03;2.42;;;0.80;;
79480;SDS011;68944;48.262;14.208;2024-03-23T11:20:31;4.47;;;1.00;;
79480;SDS011;68944;48.262;14.208;2024-03-23T11:22:57;2.08;;;0.80;;
79480;SDS011;68944;48.262;14.208;2024-03-23T11:25:25;2.28;;;0.80;;
79480;SDS011;68944;48.262;14.208;2024-03-23T11:27:55;2.95;;;1.00;;
79480;SDS011;68944;48.262;14.208;2024-03-23T11:30:23;1.70;;;0.90;;
79480;SDS011;68944;48.262;14.208;2024-03-23T11:32:50;2.72;;;0.90;;
79480;SDS011;68944;48.262;14.208;2024-03-23T11:35:33;3.03;;;0.90;;
79480;SDS011;68944;48.262;14.208;2024-03-23T11:40:41;2.47;;;0.75;;
79480;SDS011;68944;48.262;14.208;2024-03-23T11:43:09;1.98;;;0.80;;
79480;SDS011;68944;48.262;14.208;2024-03-23T11:45:42;2.33;;;0.90;;
79480;SDS011;68944;48.262;14.208;2024-03-23T11:48:12;3.95;;;1.02;;
79480;SDS011;68944;48.262;14.208;2024-03-23T11:50:40;5.85;;;1.20;;
79480;SDS011;68944;48.262;14.208;2024-03-23T11:53:07;3.83;;;0.90;;
79480;SDS011;68944;48.262;14.208;2024-03-23T11:58:28;2.92;;;0.93;;
79480;SDS011;68944;48.262;14.208;2024-03-23T12:01:01;3.35;;;0.95;;
79480;SDS011;68944;48.262;14.208;2024-03-23T12:03:28;4.15;;;1.40;;
79480;SDS011;68944;48.262;14.208;2024-03-23T12:05:55;3.67;;;1.10;;
79480;SDS011;68944;48.262;14.208;2024-03-23T12:08:23;4.25;;;1.23;;
79480;SDS011;68944;48.262;14.208;2024-03-23T12:11:09;3.53;;;1.10;;
79480;SDS011;68944;48.262;14.208;2024-03-23T12:13:36;3.95;;;1.17;;
79480;SDS011;68944;48.262;14.208;2024-03-23T12:16:18;3.88;;;1.30;;
79480;SDS011;68944;48.262;14.208;2024-03-23T12:18:46;4.13;;;1.20;;
79480;SDS011;68944;48.262;14.208;2024-03-23T12:21:18;5.20;;;1.42;;
79480;SDS011;68944;48.262;14.208;2024-03-23T12:23:44;6.97;;;1.50;;
79480;SDS011;68944;48.262;14.208;2024-03-23T12:26:12;4.22;;;1.30;;
79480;SDS011;68944;48.262;14.208;2024-03-23T12:28:38;5.00;;;1.42;;
79480;SDS011;68944;48.262;14.208;2024-03-23T12:31:04;4.43;;;1.23;;
79480;SDS011;68944;48.262;14.208;2024-03-23T12:33:30;4.60;;;1.40;;
79480;SDS011;68944;48.262;14.208;2024-03-23T12:35:56;4.95;;;1.58;;
79480;SDS011;68944;48.262;14.208;2024-03-23T12:38:21;4.25;;;1.40;;
79480;SDS011;68944;48.262;14.208;2024-03-23T12:40:47;3.72;;;1.15;;
79480;SDS011;68944;48.262;14.208;2024-03-23T12:43:13;5.57;;;1.30;;
79480;SDS011;68944;48.262;14.208;2024-03-23T12:45:39;4.18;;;1.50;;
79480;SDS011;68944;48.262;14.208;2024-03-23T12:48:05;4.63;;;1.30;;
79480;SDS011;68944;48.262;14.208;2024-03-23T12:50:31;3.95;;;1.40;;
79480;SDS011;68944;48.262;14.208;2024-03-23T12:52:57;3.53;;;1.27;;
79480;SDS011;68944;48.262;14.208;2024-03-23T12:55:22;5.55;;;1.42;;
79480;SDS011;68944;48.262;14.208;2024-03-23T12:57:48;5.40;;;1.42;;
79480;SDS011;68944;48.262;14.208;2024-03-23T13:00:13;5.28;;;1.38;;
79480;SDS011;68944;48.262;14.208;2024-03-23T13:02:41;3.25;;;1.10;;
79480;SDS011;68944;48.262;14.208;2024-03-23T13:05:07;4.60;;;1.60;;
79480;SDS011;68944;48.262;14.208;2024-03-23T13:10:02;3.83;;;1.27;;
79480;SDS011;68944;48.262;14.208;2024-03-23T13:12:29;4.55;;;1.30;;
79480;SDS011;68944;48.262;14.208;2024-03-23T13:14:54;3.95;;;1.02;;
79480;SDS011;68944;48.262;14.208;2024-03-23T13:17:20;3.97;;;1.13;;
79480;SDS011;68944;48.262;14.208;2024-03-23T13:19:45;3.80;;;1.17;;
79480;SDS011;68944;48.262;14.208;2024-03-23T13:22:11;3.42;;;0.98;;
79480;SDS011;68944;48.262;14.208;2024-03-23T13:24:37;3.38;;;1.10;;
79480;SDS011;68944;48.262;14.208;2024-03-23T13:27:03;2.83;;;0.98;;
79480;SDS011;68944;48.262;14.208;2024-03-23T13:29:31;3.70;;;1.00;;
79480;SDS011;68944;48.262;14.208;2024-03-23T13:31:57;2.83;;;1.00;;
79480;SDS011;68944;48.262;14.208;2024-03-23T13:34:22;3.38;;;0.93;;
79480;SDS011;68944;48.262;14.208;2024-03-23T13:36:48;2.40;;;0.60;;
79480;SDS011;68944;48.262;14.208;2024-03-23T13:39:14;1.88;;;0.85;;
79480;SDS011;68944;48.262;14.208;2024-03-23T13:41:41;1.65;;;0.70;;
79480;SDS011;68944;48.262;14.208;2024-03-23T13:44:08;2.33;;;0.88;;
79480;SDS011;68944;48.262;14.208;2024-03-23T13:46:40;1.90;;;0.65;;
79480;SDS011;68944;48.262;14.208;2024-03-23T13:49:26;1.20;;;0.55;;
79480;SDS011;68944;48.262;14.208;2024-03-23T13:51:53;1.75;;;0.68;;
79480;SDS011;68944;48.262;14.208;2024-03-23T13:54:20;1.77;;;0.70;;
79480;SDS011;68944;48.262;14.208;2024-03-23T13:56:55;1.95;;;0.60;;
79480;SDS011;68944;48.262;14.208;2024-03-23T13:59:22;2.30;;;0.60;;
79480;SDS011;68944;48.262;14.208;2024-03-23T14:01:51;1.13;;;0.50;;
79480;SDS011;68944;48.262;14.208;2024-03-23T14:04:17;1.27;;;0.60;;
79480;SDS011;68944;48.262;14.208;2024-03-23T14:06:45;1.98;;;0.60;;
79480;SDS011;68944;48.262;14.208;2024-03-23T14:09:12;1.50;;;0.60;;
79480;SDS011;68944;48.262;14.208;2024-03-23T14:11:39;1.48;;;0.63;;
79480;SDS011;68944;48.262;14.208;2024-03-23T14:14:06;2.05;;;0.63;;
79480;SDS011;68944;48.262;14.208;2024-03-23T14:16:33;2.95;;;1.00;;
79480;SDS011;68944;48.262;14.208;2024-03-23T14:18:59;4.18;;;1.15;;
79480;SDS011;68944;48.262;14.208;2024-03-23T14:21:24;2.47;;;0.90;;
79480;SDS011;68944;48.262;14.208;2024-03-23T14:23:50;3.03;;;0.90;;
79480;SDS011;68944;48.262;14.208;2024-03-23T14:26:16;4.35;;;1.30;;
79480;SDS011;68944;48.262;14.208;2024-03-23T14:28:42;3.13;;;1.05;;
79480;SDS011;68944;48.262;14.208;2024-03-23T14:31:07;2.30;;;0.80;;
79480;SDS011;68944;48.262;14.208;2024-03-23T14:33:38;3.80;;;0.80;;
79480;SDS011;68944;48.262;14.208;2024-03-23T14:36:12;3.55;;;1.00;;
79480;SDS011;68944;48.262;14.208;2024-03-23T14:38:38;2.97;;;1.00;;
79480;SDS011;68944;48.262;14.208;2024-03-23T14:41:04;2.17;;;0.90;;
79480;SDS011;68944;48.262;14.208;2024-03-23T14:43:29;2.53;;;0.85;;
79480;SDS011;68944;48.262;14.208;2024-03-23T14:48:38;3.50;;;1.10;;
79480;SDS011;68944;48.262;14.208;2024-03-23T14:51:04;5.35;;;1.13;;
79480;SDS011;68944;48.262;14.208;2024-03-23T14:53:31;4.05;;;1.40;;
79480;SDS011;68944;48.262;14.208;2024-03-23T14:55:57;3.97;;;1.42;;
79480;SDS011;68944;48.262;14.208;2024-03-23T14:58:25;6.35;;;1.40;;
79480;SDS011;68944;48.262;14.208;2024-03-23T15:00:50;6.25;;;1.55;;
79480;SDS011;68944;48.262;14.208;2024-03-23T15:03:17;3.08;;;1.30;;
79480;SDS011;68944;48.262;14.208;2024-03-23T15:05:56;3.30;;;1.17;;
79480;SDS011;68944;48.262;14.208;2024-03-23T15:08:24;3.70;;;1.30;;
79480;SDS011;68944;48.262;14.208;2024-03-23T15:10:50;3.92;;;1.25;;
79480;SDS011;68944;48.262;14.208;2024-03-23T15:13:16;3.70;;;1.15;;
79480;SDS011;68944;48.262;14.208;2024-03-23T15:15:42;3.65;;;1.17;;
79480;SDS011;68944;48.262;14.208;2024-03-23T15:18:16;5.05;;;1.30;;
79480;SDS011;68944;48.262;14.208;2024-03-23T15:20:57;3.60;;;1.20;;
79480;SDS011;68944;48.262;14.208;2024-03-23T15:23:27;3.03;;;1.10;;
79480;SDS011;68944;48.262;14.208;2024-03-23T15:26:00;4.75;;;1.30;;
79480;SDS011;68944;48.262;14.208;2024-03-23T15:28:27;5.97;;;1.20;;
79480;SDS011;68944;48.262;14.208;2024-03-23T15:31:12;4.63;;;1.48;;
79480;SDS011;68944;48.262;14.208;2024-03-23T15:33:38;4.10;;;1.30;;
79480;SDS011;68944;48.262;14.208;2024-03-23T15:36:05;5.85;;;1.50;;